createdAt,value
2018-02-14T00:00:33.083Z,8.27
2018-02-14T00:03:00.772Z,8.21
2018-02-14T00:05:28.400Z,8.22
2018-02-14T00:07:55.977Z,8.22
2018-02-14T00:10:23.560Z,8.19
2018-02-14T00:12:51.186Z,8.17
2018-02-14T00:15:18.771Z,8.15
2018-02-14T00:17:46.334Z,8.10
2018-02-14T00:20:13.954Z,8.09
2018-02-14T00:22:41.527Z,8.08
2018-02-14T00:25:09.160Z,8.02
2018-02-14T00:27:36.805Z,7.96
2018-02-14T00:30:04.370Z,8.00
2018-02-14T00:32:31.938Z,7.95
2018-02-14T00:34:59.497Z,7.88
2018-02-14T00:37:27.186Z,7.82
2018-02-14T00:39:54.815Z,7.77
2018-02-14T00:42:22.377Z,7.77
2018-02-14T00:44:49.950Z,7.69
2018-02-14T00:47:17.573Z,7.68
2018-02-14T00:49:45.212Z,7.62
2018-02-14T00:52:12.769Z,7.64
2018-02-14T00:54:40.446Z,7.64
2018-02-14T00:57:08.005Z,7.63
2018-02-14T00:59:35.635Z,7.57
2018-02-14T01:02:03.192Z,7.57
2018-02-14T01:04:30.830Z,7.56
2018-02-14T01:06:58.466Z,7.59
2018-02-14T01:09:26.102Z,7.62
2018-02-14T01:11:53.786Z,7.55
2018-02-14T01:14:21.362Z,7.50
2018-02-14T01:16:48.923Z,7.46
2018-02-14T01:19:17.331Z,7.39
2018-02-14T01:21:50.903Z,7.36
2018-02-14T01:24:18.534Z,7.37
2018-02-14T01:26:46.113Z,7.41
2018-02-14T01:29:13.734Z,7.43
2018-02-14T01:31:41.308Z,7.40
2018-02-14T01:34:08.878Z,7.43
2018-02-14T01:36:36.518Z,7.46
2018-02-14T01:39:04.154Z,7.48
2018-02-14T01:41:31.782Z,7.51
2018-02-14T01:43:59.350Z,7.37
2018-02-14T01:46:26.974Z,7.37
2018-02-14T01:48:54.623Z,7.32
2018-02-14T01:51:22.175Z,7.31
2018-02-14T01:53:49.746Z,7.25
2018-02-14T01:56:17.306Z,7.15
2018-02-14T01:58:44.877Z,7.14
2018-02-14T02:01:12.456Z,7.15
2018-02-14T02:03:40.135Z,7.11
2018-02-14T02:06:07.697Z,7.11
2018-02-14T02:08:35.325Z,7.13
2018-02-14T02:11:02.962Z,7.14
2018-02-14T02:13:30.526Z,7.13
2018-02-14T02:15:58.098Z,7.14
2018-02-14T02:18:25.647Z,7.14
2018-02-14T02:20:53.283Z,7.12
2018-02-14T02:23:20.917Z,7.18
2018-02-14T02:25:48.468Z,7.27
2018-02-14T02:28:16.039Z,7.36
2018-02-14T02:30:43.673Z,7.47
2018-02-14T02:33:11.228Z,7.58
2018-02-14T02:35:38.843Z,7.56
2018-02-14T02:38:06.469Z,7.58
2018-02-14T02:40:34.187Z,7.59
2018-02-14T02:43:01.763Z,7.62
2018-02-14T02:45:29.403Z,7.62
2018-02-14T02:47:56.965Z,7.57
2018-02-14T02:50:24.548Z,7.59
2018-02-14T02:52:52.126Z,7.61
2018-02-14T02:55:19.826Z,7.61
2018-02-14T02:57:47.385Z,7.60
2018-02-14T03:00:15.039Z,7.59
2018-02-14T03:02:42.587Z,7.47
2018-02-14T03:05:10.210Z,7.44
2018-02-14T03:07:38.018Z,7.42
2018-02-14T03:10:05.595Z,7.35
2018-02-14T03:12:33.228Z,7.36
2018-02-14T03:15:00.850Z,7.37
2018-02-14T03:17:28.472Z,7.41
2018-02-14T03:19:56.038Z,7.47
2018-02-14T03:22:23.606Z,7.50
2018-02-14T03:24:51.246Z,7.55
2018-02-14T03:27:18.806Z,7.63
2018-02-14T03:29:46.431Z,7.65
2018-02-14T03:32:13.991Z,7.69
2018-02-14T03:34:41.545Z,7.70
2018-02-14T03:37:09.169Z,7.74
2018-02-14T03:39:36.799Z,7.73
2018-02-14T03:42:04.370Z,7.70
2018-02-14T03:44:31.928Z,7.66
2018-02-14T03:46:59.486Z,7.59
2018-02-14T03:49:27.035Z,7.60
2018-02-14T03:51:54.602Z,7.66
2018-02-14T03:54:22.177Z,7.69
2018-02-14T03:56:49.795Z,7.70
2018-02-14T03:59:17.416Z,7.72
2018-02-14T04:01:44.993Z,7.77
2018-02-14T04:04:12.543Z,7.77
2018-02-14T04:06:40.171Z,7.78
2018-02-14T04:09:07.790Z,7.82
2018-02-14T04:11:35.464Z,7.80
2018-02-14T04:14:03.028Z,7.80
2018-02-14T04:16:30.597Z,7.75
2018-02-14T04:18:58.233Z,7.76
2018-02-14T04:21:25.803Z,7.78
2018-02-14T04:23:53.474Z,7.71
2018-02-14T04:26:21.078Z,7.70
2018-02-14T04:28:48.642Z,7.73
2018-02-14T04:31:16.276Z,7.72
2018-02-14T04:33:43.834Z,7.71
2018-02-14T04:36:11.462Z,7.69
2018-02-14T04:38:39.012Z,7.73
2018-02-14T04:41:06.623Z,7.70
2018-02-14T04:43:34.198Z,7.70
2018-02-14T04:46:01.766Z,7.74
2018-02-14T04:48:29.396Z,7.75
2018-02-14T04:50:57.019Z,7.74
2018-02-14T04:53:24.690Z,7.79
2018-02-14T04:55:52.295Z,7.79
2018-02-14T04:58:19.889Z,7.80
2018-02-14T05:00:47.472Z,7.72
2018-02-14T05:03:15.030Z,7.66
2018-02-14T05:05:42.676Z,7.67
2018-02-14T05:08:10.239Z,7.71
2018-02-14T05:10:37.898Z,7.69
2018-02-14T05:13:05.461Z,7.64
2018-02-14T05:15:33.025Z,7.69
2018-02-14T05:18:00.607Z,7.68
2018-02-14T05:20:28.231Z,7.63
2018-02-14T05:22:55.956Z,7.63
2018-02-14T05:25:23.583Z,7.60
2018-02-14T05:27:51.153Z,7.64
2018-02-14T05:30:18.811Z,7.64
2018-02-14T05:32:46.362Z,7.64
2018-02-14T05:35:14.079Z,7.67
2018-02-14T05:37:41.638Z,7.63
2018-02-14T05:40:09.198Z,7.66
2018-02-14T05:42:36.766Z,7.72
2018-02-14T05:45:04.331Z,7.72
2018-02-14T05:47:31.942Z,7.68
2018-02-14T05:49:59.516Z,7.71
2018-02-14T05:52:27.088Z,7.72
2018-02-14T05:54:54.727Z,7.74
2018-02-14T05:57:22.290Z,7.72
2018-02-14T05:59:49.862Z,7.76
2018-02-14T06:02:17.433Z,7.77
2018-02-14T06:04:45.062Z,7.72
2018-02-14T06:07:12.682Z,7.71
2018-02-14T06:09:40.306Z,7.72
2018-02-14T06:12:07.873Z,7.71
2018-02-14T06:14:35.434Z,7.66
2018-02-14T06:17:03.070Z,7.66
2018-02-14T06:19:30.652Z,7.67
2018-02-14T06:21:58.288Z,7.68
2018-02-14T06:24:25.953Z,7.70
2018-02-14T06:26:53.514Z,7.72
2018-02-14T06:29:21.085Z,7.74
2018-02-14T06:31:48.654Z,7.74
2018-02-14T06:34:16.234Z,7.75
2018-02-14T06:36:43.846Z,7.83
2018-02-14T06:39:11.527Z,7.86
2018-02-14T06:41:39.093Z,7.86
2018-02-14T06:44:06.690Z,7.94
2018-02-14T06:46:34.326Z,7.90
2018-02-14T06:49:01.956Z,7.92
2018-02-14T06:51:29.526Z,7.92
2018-02-14T06:53:57.131Z,7.94
2018-02-14T06:56:24.706Z,7.94
2018-02-14T06:58:52.286Z,7.97
2018-02-14T07:01:19.902Z,7.94
2018-02-14T07:03:47.532Z,7.87
2018-02-14T07:06:15.094Z,7.93
2018-02-14T07:08:42.673Z,7.91
2018-02-14T07:11:10.250Z,7.87
2018-02-14T07:13:37.809Z,7.85
2018-02-14T07:16:05.371Z,7.83
2018-02-14T07:18:33.042Z,7.76
2018-02-14T07:21:00.608Z,7.63
2018-02-14T07:23:30.971Z,7.49
2018-02-14T07:25:58.552Z,7.39
2018-02-14T07:28:26.170Z,7.13
2018-02-14T07:30:53.740Z,6.93
2018-02-14T07:33:21.299Z,6.87
2018-02-14T07:35:48.921Z,6.70
2018-02-14T07:38:16.482Z,6.47
2018-02-14T07:40:44.132Z,6.36
2018-02-14T07:43:11.744Z,6.20
2018-02-14T07:45:39.362Z,6.08
2018-02-14T07:48:06.952Z,5.91
2018-02-14T07:50:34.511Z,5.69
2018-02-14T07:53:02.140Z,5.76
2018-02-14T07:55:29.762Z,5.81
2018-02-14T07:57:57.378Z,5.72
2018-02-14T08:00:24.987Z,5.76
2018-02-14T08:02:52.590Z,5.71
2018-02-14T08:05:20.157Z,5.76
2018-02-14T08:07:47.714Z,5.67
2018-02-14T08:10:15.403Z,5.67
2018-02-14T08:12:43.039Z,5.67
2018-02-14T08:15:10.681Z,5.75
2018-02-14T08:17:38.362Z,5.82
2018-02-14T08:20:05.930Z,5.87
2018-02-14T08:22:33.515Z,5.85
2018-02-14T08:25:01.095Z,5.98
2018-02-14T08:27:28.778Z,5.99
2018-02-14T08:29:56.363Z,6.08
2018-02-14T08:32:24.022Z,6.07
2018-02-14T08:34:51.663Z,6.15
2018-02-14T08:37:19.287Z,6.29
2018-02-14T08:39:46.858Z,6.34
2018-02-14T08:42:14.461Z,6.24
2018-02-14T08:44:42.071Z,6.35
2018-02-14T08:47:09.706Z,6.34
2018-02-14T08:49:37.334Z,6.40
2018-02-14T08:52:04.962Z,6.44
2018-02-14T08:54:32.536Z,6.43
2018-02-14T08:57:00.114Z,6.42
2018-02-14T08:59:27.694Z,6.48
2018-02-14T09:01:55.346Z,6.45
2018-02-14T09:04:22.910Z,6.44
2018-02-14T09:06:50.544Z,6.38
2018-02-14T09:09:18.115Z,6.46
2018-02-14T09:11:45.747Z,6.52
2018-02-14T09:14:13.323Z,6.40
2018-02-14T09:16:40.897Z,6.39
2018-02-14T09:19:08.587Z,6.47
2018-02-14T09:21:36.146Z,6.42
2018-02-14T09:24:03.713Z,6.51
2018-02-14T09:26:31.353Z,6.57
2018-02-14T09:28:58.974Z,6.46
2018-02-14T09:31:26.546Z,6.37
2018-02-14T09:33:54.116Z,6.35
2018-02-14T09:36:21.797Z,6.24
2018-02-14T09:38:49.415Z,6.19
2018-02-14T09:41:17.037Z,6.07
2018-02-14T09:43:44.658Z,5.91
2018-02-14T09:46:12.273Z,5.85
2018-02-14T09:48:39.902Z,5.71
2018-02-14T09:51:07.457Z,5.72
2018-02-14T09:53:35.073Z,5.65
2018-02-14T09:56:02.632Z,5.63
2018-02-14T09:58:30.193Z,5.59
2018-02-14T10:00:57.782Z,5.70
2018-02-14T10:03:25.398Z,5.72
2018-02-14T10:05:53.041Z,5.68
2018-02-14T10:08:20.604Z,5.76
2018-02-14T10:10:49.081Z,5.67
2018-02-14T10:13:16.642Z,5.70
2018-02-14T10:15:44.207Z,5.73
2018-02-14T10:18:11.844Z,5.62
2018-02-14T10:20:39.409Z,5.48
2018-02-14T10:23:06.988Z,5.50
2018-02-14T10:25:34.593Z,5.56
2018-02-14T10:28:02.196Z,5.57
2018-02-14T10:30:29.772Z,5.55
2018-02-14T10:32:57.385Z,5.57
2018-02-14T10:35:24.950Z,5.49
2018-02-14T10:37:52.611Z,5.49
2018-02-14T10:40:20.303Z,5.56
2018-02-14T10:42:47.843Z,5.63
2018-02-14T10:45:15.556Z,5.49
2018-02-14T10:47:43.164Z,5.50
2018-02-14T10:50:10.760Z,5.50
2018-02-14T10:52:38.336Z,5.57
2018-02-14T10:55:05.911Z,5.57
2018-02-14T10:57:33.478Z,5.61
2018-02-14T11:00:01.091Z,5.63
2018-02-14T11:05:32.931Z,5.70
2018-02-14T11:08:00.537Z,5.58
2018-02-14T11:10:28.107Z,5.51
2018-02-14T11:12:55.672Z,5.27
2018-02-14T11:15:23.300Z,5.19
2018-02-14T11:17:50.866Z,5.14
2018-02-14T11:20:18.486Z,5.05
2018-02-14T11:22:46.043Z,5.04
2018-02-14T11:25:13.720Z,5.02
2018-02-14T11:27:41.286Z,5.05
2018-02-14T11:30:08.942Z,5.02
2018-02-14T11:32:36.512Z,4.99
2018-02-14T11:35:04.126Z,4.98
2018-02-14T11:37:31.691Z,5.07
2018-02-14T11:39:59.336Z,5.07
2018-02-14T11:42:27.016Z,5.19
2018-02-14T11:44:54.578Z,5.23
2018-02-14T11:47:22.164Z,5.19
2018-02-14T11:49:49.799Z,5.28
2018-02-14T11:52:17.354Z,5.31
2018-02-14T11:54:45.019Z,5.29
2018-02-14T11:57:12.574Z,5.30
2018-02-14T11:59:40.335Z,5.31
2018-02-14T12:02:07.888Z,5.29
2018-02-14T12:04:35.455Z,5.18
2018-02-14T12:07:03.091Z,5.08
2018-02-14T12:09:30.646Z,5.07
2018-02-14T12:11:58.268Z,4.96
2018-02-14T12:14:25.900Z,4.89
2018-02-14T12:16:53.578Z,4.96
2018-02-14T12:19:21.139Z,5.06
2018-02-14T12:21:48.704Z,4.99
2018-02-14T12:24:16.334Z,5.00
2018-02-14T12:26:43.890Z,5.12
2018-02-14T12:29:11.514Z,5.16
2018-02-14T12:31:39.089Z,5.19
2018-02-14T12:34:06.712Z,4.98
2018-02-14T12:36:34.279Z,4.92
2018-02-14T12:39:01.905Z,4.94
2018-02-14T12:41:29.536Z,4.93
2018-02-14T12:43:57.098Z,4.92
2018-02-14T12:46:24.731Z,4.97
2018-02-14T12:48:52.295Z,4.84
2018-02-14T12:51:19.908Z,4.58
2018-02-14T12:53:47.563Z,4.50
2018-02-14T12:56:15.178Z,4.49
2018-02-14T12:58:42.821Z,4.45
2018-02-14T13:01:10.390Z,4.48
2018-02-14T13:03:38.077Z,4.54
2018-02-14T13:06:05.638Z,4.52
2018-02-14T13:08:33.183Z,4.53
2018-02-14T13:11:00.815Z,4.43
2018-02-14T13:13:28.387Z,4.48
2018-02-14T13:15:55.984Z,4.48
2018-02-14T13:18:23.540Z,4.41
2018-02-14T13:20:51.178Z,4.39
2018-02-14T13:23:18.762Z,4.39
2018-02-14T13:25:46.390Z,4.45
2018-02-14T13:28:13.954Z,4.41
2018-02-14T13:30:41.570Z,4.42
2018-02-14T13:33:09.150Z,4.34
2018-02-14T13:35:36.726Z,4.43
2018-02-14T13:38:04.401Z,4.46
2018-02-14T13:40:34.490Z,4.55
2018-02-14T13:43:02.058Z,4.57
2018-02-14T13:45:29.747Z,4.60
2018-02-14T13:47:59.697Z,4.69
2018-02-14T13:50:27.342Z,4.76
2018-02-14T13:52:54.947Z,4.78
2018-02-14T13:55:22.510Z,4.78
2018-02-14T13:57:50.070Z,4.81
2018-02-14T14:00:17.647Z,4.74
2018-02-14T14:02:45.223Z,4.71
2018-02-14T14:05:12.813Z,4.54
2018-02-14T14:07:40.362Z,4.46
2018-02-14T14:10:08.038Z,4.50
2018-02-14T14:12:35.659Z,4.46
2018-02-14T14:15:03.233Z,4.48
2018-02-14T14:17:30.796Z,4.44
2018-02-14T14:19:58.351Z,4.28
2018-02-14T14:22:25.982Z,4.22
2018-02-14T14:24:53.546Z,4.18
2018-02-14T14:27:21.186Z,4.20
2018-02-14T14:29:49.758Z,4.18
2018-02-14T14:32:17.378Z,4.16
2018-02-14T14:34:45.704Z,3.96
2018-02-14T14:37:14.192Z,3.95
2018-02-14T14:39:41.780Z,3.97
2018-02-14T14:42:09.952Z,3.96
2018-02-14T14:44:37.573Z,3.95
2018-02-14T14:47:06.166Z,3.88
2018-02-14T14:49:33.740Z,3.83
2018-02-14T14:52:01.321Z,3.81
2018-02-14T14:54:30.666Z,3.79
2018-02-14T14:56:58.243Z,3.82
2018-02-14T14:59:25.867Z,3.72
2018-02-14T15:01:53.433Z,3.79
2018-02-14T15:04:21.001Z,3.76
2018-02-14T15:06:48.562Z,3.74
2018-02-14T15:09:16.196Z,3.76
2018-02-14T15:11:43.767Z,3.77
2018-02-14T15:14:11.390Z,3.75
2018-02-14T15:16:38.965Z,3.79
2018-02-14T15:19:06.534Z,3.80
2018-02-14T15:21:34.162Z,3.77
2018-02-14T15:24:01.729Z,3.70
2018-02-14T15:26:29.346Z,3.67
2018-02-14T15:28:56.914Z,3.76
2018-02-14T15:31:25.746Z,3.74
2018-02-14T15:33:53.317Z,3.72
2018-02-14T15:36:20.874Z,3.76
2018-02-14T15:38:48.441Z,3.73
2018-02-14T15:41:16.044Z,3.77
2018-02-14T15:43:43.726Z,3.71
2018-02-14T15:46:11.384Z,3.76
2018-02-14T15:48:38.954Z,3.75
2018-02-14T15:51:06.587Z,3.70
2018-02-14T15:53:34.163Z,3.72
2018-02-14T15:56:01.738Z,3.68
2018-02-14T15:58:29.369Z,3.71
2018-02-14T16:00:56.990Z,3.69
2018-02-14T16:03:24.622Z,3.68
2018-02-14T16:05:52.186Z,3.74
2018-02-14T16:08:19.754Z,3.65
2018-02-14T16:10:47.332Z,3.59
2018-02-14T16:13:15.011Z,3.63
2018-02-14T16:15:42.634Z,3.59
2018-02-14T16:18:10.347Z,3.50
2018-02-14T16:20:37.933Z,3.54
2018-02-14T16:23:05.517Z,3.50
2018-02-14T16:25:33.108Z,3.53
2018-02-14T16:28:00.701Z,3.54
2018-02-14T16:30:28.340Z,3.52
2018-02-14T16:32:55.898Z,3.52
2018-02-14T16:35:23.556Z,3.54
2018-02-14T16:37:51.129Z,3.58
2018-02-14T16:40:18.750Z,3.50
2018-02-14T16:42:46.320Z,3.52
2018-02-14T16:45:13.886Z,3.49
2018-02-14T16:47:41.523Z,3.47
2018-02-14T16:50:09.162Z,3.44
2018-02-14T16:52:36.808Z,3.52
2018-02-14T16:55:04.388Z,3.46
2018-02-14T16:57:32.030Z,3.49
2018-02-14T17:00:00.023Z,3.48
2018-02-14T17:02:27.668Z,3.47
2018-02-14T17:04:55.245Z,3.49
2018-02-14T17:07:22.811Z,3.48
2018-02-14T17:09:50.431Z,3.47
2018-02-14T17:12:18.052Z,3.47
2018-02-14T17:14:45.619Z,3.51
2018-02-14T17:17:13.198Z,3.49
2018-02-14T17:19:40.776Z,3.59
2018-02-14T17:22:08.359Z,3.54
2018-02-14T17:24:35.923Z,3.60
2018-02-14T17:27:03.597Z,3.65
2018-02-14T17:29:31.165Z,3.63
2018-02-14T17:31:58.742Z,3.61
2018-02-14T17:34:26.322Z,3.60
2018-02-14T17:36:53.884Z,3.56
2018-02-14T17:39:21.463Z,3.59
2018-02-14T17:41:49.048Z,3.56
2018-02-14T17:44:16.723Z,3.61
2018-02-14T17:46:44.359Z,3.61
2018-02-14T17:49:11.903Z,3.65
2018-02-14T17:51:39.519Z,3.64
2018-02-14T17:54:07.105Z,3.66
2018-02-14T17:56:34.686Z,3.61
2018-02-14T17:59:02.260Z,3.64
2018-02-14T18:01:29.917Z,3.63
2018-02-14T18:03:57.553Z,3.62
2018-02-14T18:06:25.175Z,3.64
2018-02-14T18:08:52.810Z,3.66
2018-02-14T18:11:20.392Z,3.67
2018-02-14T18:13:47.982Z,3.64
2018-02-14T18:16:15.555Z,3.66
2018-02-14T18:18:44.290Z,3.61
2018-02-14T18:21:11.860Z,3.65
2018-02-14T18:23:39.434Z,3.64
2018-02-14T18:26:07.006Z,3.71
2018-02-14T18:28:34.574Z,3.76
2018-02-14T18:31:02.197Z,3.70
2018-02-14T18:33:29.757Z,3.73
2018-02-14T18:35:57.426Z,3.73
2018-02-14T18:38:25.053Z,3.73
2018-02-14T18:40:52.670Z,3.77
2018-02-14T18:43:20.251Z,3.76
2018-02-14T18:45:47.814Z,3.79
2018-02-14T18:48:15.446Z,3.77
2018-02-14T18:50:43.074Z,3.74
2018-02-14T18:53:10.732Z,3.69
2018-02-14T18:55:38.291Z,3.68
2018-02-14T18:58:05.906Z,3.70
2018-02-14T19:00:33.550Z,3.69
2018-02-14T19:03:01.130Z,3.72
2018-02-14T19:05:28.702Z,3.72
2018-02-14T19:07:56.330Z,3.72
2018-02-14T19:10:24.018Z,3.71
2018-02-14T19:12:51.592Z,3.69
2018-02-14T19:15:19.169Z,3.66
2018-02-14T19:17:46.740Z,3.70
2018-02-14T19:20:14.311Z,3.67
2018-02-14T19:22:41.982Z,3.69
2018-02-14T19:25:09.555Z,3.68
2018-02-14T19:27:37.254Z,3.69
2018-02-14T19:30:04.862Z,3.72
2018-02-14T19:32:32.435Z,3.64
2018-02-14T19:35:00.017Z,3.61
2018-02-14T19:37:27.582Z,3.56
2018-02-14T19:39:55.263Z,3.45
2018-02-14T19:42:22.896Z,3.39
2018-02-14T19:44:50.465Z,3.32
2018-02-14T19:47:18.056Z,3.18
2018-02-14T19:49:45.622Z,3.08
2018-02-14T19:52:13.244Z,3.12
2018-02-14T19:54:40.878Z,3.02
2018-02-14T19:57:08.450Z,3.02
2018-02-14T19:59:36.085Z,2.86
2018-02-14T20:02:03.714Z,2.82
2018-02-14T20:04:31.395Z,2.79
2018-02-14T20:06:58.968Z,2.80
2018-02-14T20:09:26.622Z,2.74
2018-02-14T20:11:54.266Z,2.70
2018-02-14T20:14:21.816Z,2.68
2018-02-14T20:16:49.503Z,2.69
2018-02-14T20:19:17.048Z,2.71
2018-02-14T20:21:44.609Z,2.72
2018-02-14T20:24:12.200Z,2.79
2018-02-14T20:26:39.801Z,2.87
2018-02-14T20:29:07.438Z,2.91
2018-02-14T20:31:35.059Z,3.04
2018-02-14T20:34:02.617Z,3.08
2018-02-14T20:36:30.186Z,3.12
2018-02-14T20:38:57.750Z,3.17
2018-02-14T20:41:25.366Z,3.27
2018-02-14T20:43:52.990Z,3.29
2018-02-14T20:46:20.622Z,3.42
2018-02-14T20:48:48.294Z,3.45
2018-02-14T20:51:15.864Z,3.42
2018-02-14T20:53:43.442Z,3.47
2018-02-14T20:56:11.006Z,3.47
2018-02-14T20:58:38.622Z,3.57
2018-02-14T21:01:06.190Z,3.51
2018-02-14T21:03:33.754Z,3.47
2018-02-14T21:06:01.323Z,3.55
2018-02-14T21:08:28.942Z,3.58
2018-02-14T21:10:56.497Z,3.58
2018-02-14T21:13:24.064Z,3.62
2018-02-14T21:15:51.677Z,3.63
2018-02-14T21:18:19.253Z,3.64
2018-02-14T21:20:46.868Z,3.62
2018-02-14T21:23:14.447Z,3.64
2018-02-14T21:25:42.059Z,3.66
2018-02-14T21:28:09.639Z,3.59
2018-02-14T21:30:37.330Z,3.51
2018-02-14T21:33:04.968Z,3.50
2018-02-14T21:35:32.586Z,3.45
2018-02-14T21:38:01.071Z,3.35
2018-02-14T21:40:28.644Z,3.34
2018-02-14T21:42:56.207Z,3.31
2018-02-14T21:45:23.785Z,3.30
2018-02-14T21:47:51.359Z,3.22
2018-02-14T21:50:18.970Z,3.15
2018-02-14T21:52:46.534Z,3.07
2018-02-14T21:55:14.172Z,3.02
2018-02-14T21:57:41.811Z,3.12
2018-02-14T22:00:09.391Z,3.16
2018-02-14T22:02:36.971Z,3.21
2018-02-14T22:05:04.534Z,3.29
2018-02-14T22:07:32.158Z,3.29
2018-02-14T22:09:59.715Z,3.25
2018-02-14T22:12:27.277Z,3.26
2018-02-14T22:14:54.846Z,3.23
2018-02-14T22:17:22.463Z,3.25
2018-02-14T22:19:50.145Z,3.15
2018-02-14T22:22:17.777Z,3.17
2018-02-14T22:24:45.469Z,3.14
2018-02-14T22:27:13.128Z,3.07
2018-02-14T22:29:40.700Z,3.06
2018-02-14T22:32:08.327Z,3.03
2018-02-14T22:34:35.894Z,3.05
2018-02-14T22:37:03.478Z,3.09
2018-02-14T22:39:31.050Z,3.13
2018-02-14T22:41:58.673Z,3.23
2018-02-14T22:44:26.244Z,3.19
2018-02-14T22:46:53.862Z,3.13
2018-02-14T22:49:21.486Z,3.10
2018-02-14T22:51:49.042Z,3.07
2018-02-14T22:54:16.605Z,3.03
2018-02-14T22:56:44.227Z,3.02
2018-02-14T22:59:11.847Z,3.01
2018-02-14T23:01:39.465Z,2.89
2018-02-14T23:04:07.092Z,2.85
2018-02-14T23:06:34.664Z,2.83
2018-02-14T23:09:02.228Z,2.71
2018-02-14T23:11:29.859Z,2.67
2018-02-14T23:13:57.414Z,2.77
2018-02-14T23:16:25.092Z,2.72
2018-02-14T23:18:52.646Z,2.82
2018-02-14T23:21:20.206Z,2.79
2018-02-14T23:23:47.788Z,2.71
2018-02-14T23:26:15.417Z,2.71
2018-02-14T23:28:42.986Z,2.76
2018-02-14T23:31:10.570Z,2.68
2018-02-14T23:33:38.246Z,2.58
2018-02-14T23:36:05.867Z,2.53
2018-02-14T23:38:33.429Z,2.49
2018-02-14T23:41:01.038Z,2.41
2018-02-14T23:43:28.598Z,2.40
2018-02-14T23:45:56.279Z,2.35
2018-02-14T23:48:23.837Z,2.27
2018-02-14T23:50:51.460Z,2.13
2018-02-14T23:53:19.089Z,2.13
2018-02-14T23:55:46.721Z,2.10
2018-02-14T23:58:14.330Z,2.03
